Terminal Aerodrome Forecast
Issued by NWS Tampa Bay Area, FL

Home | Current Version | Previous Version | Text Only | Print | Product List | Glossary On
Versions: 1 2 3 4 5 6 7 8 9 10 11 12 13 14 15 16 17 18 19 20 21 22 23 24
915
FTUS42 KTBW 171743
TAFTPA
TAF
KTPA 171743Z 1718/1824 18007KT P6SM FEW035 FEW250
     FM180000 VRB03KT P6SM SCT250
     FM180700 VRB03KT 6SM BR SCT010 SCT250
     FM181400 18006KT P6SM SCT030 SCT250
     FM182100 25006KT P6SM FEW040 SCT250=

USA.gov is the U.S. government's official web portal to all federal, state and local government web resources and services.